Midway, Utah
Current Conditions -  °F | °C
As of 2:15 PM on Saturday 22 Nov 2014 (Local Time) from K36U Reporting Station
Unknown Precip Unknown Precip  
Wind Chill: 34°   Ceiling: 1900
Heat Index: 37°   Visibility: 10mi
Dew Point: 34°   Wind: 5mph
Humidity: 87%   Direction: 220°SW
Pressure: 29.8"   Gusts: NA
Location:  40.51°N, 111.47°W
Report Text: K36U 222115Z AUTO 22004KT 10SM UP BKN019 OVC026 03/01 A2980 RMK AO2 LTG DSNT NW
Loading
Personal Weather Stations






























Interactive Weather Map New forecast layout! Learn more

10-Day Weather Forecast

Advertisements
Track Severe Weather on mobile